Accueil
METAR-TAF:

METAR-TAF

Aéroports :

Aéroport de Dinard Pleurtuit Saint-Malo

Dinard, France

latitude: 48-35N, longitude: 002-04W, altitude: 65 m

Observation

Le bulletin a été fait il y a 40 minutes, à 15:30 UTC
Vent 13 kt de nord-est
Température 6°C
Humidité 61%
Pression 1027 hPa
Visibilité 10 km ou plus
Ciel couvert à une hauteur de 3700 ft

METAR: LFRD 051530Z AUTO 05013KT 9999 OVC037 06/M01 Q1027 TEMPO 05015G25KT

Heure: 17:10 (16:10 UTC)

Prévision

Le bulletin a été fait il y a 5 heures et 10 minutes, à 11:00 UTC
Prévision valable du 05 à 12 UTC au 06 à 12 UTC
Vent 10 kt de nord-est
Visibilité 10 km ou plus
Nuages épars à une hauteur de 3000 ft
Temporairement
du 05 à 14 UTC au 05 à 21 UTC
Vent 15 kt de nord-est avec des rafales jusqu'à 25 kt

TAF: LFRD 051100Z 0512/0612 05010KT 9999 SCT030 TEMPO 0514/0521 05015G25KT

Observations et prévisions météorologiques de plus de 4000 aéroports (messages METAR et TAF).

Les stations disponibles sont représentées par des disques jaunes et rouges sur la carte.

Passer la souris dessus pour voir le nom de la station.

Cliquer dessus pour voir les observations et prévisions météorologiques.

Pour changer de carte: cliquez sur les boutons verts avec une croix noire pour zoomer, sur le bouton vert avec un tiret pour effectuer un zoom arrière, ou sur les flèches vertes pour les cartes adjacentes.


METAR-TAF: